This is the latest recevied weather packets stored in our database for station/object EA3IBE-10. If no packets are shown the sender has not sent any weather packets the latest 10 day(s).
| Time | Temp. | Humidity | Pressure | Rain* | Wind** | Luminosity | Snow |
|---|---|---|---|---|---|---|---|
| 1777418954 | 13.89° C | 100% | 1011.9 hPa | - | - | - | - |
| 1777416554 | 13.33° C | 100% | 1012.1 hPa | - | - | - | - |
| 1777414154 | 13.33° C | 100% | 1011.7 hPa | - | - | - | - |
| 1777411753 | 13.89° C | 100% | 1010.7 hPa | - | - | - | - |
| 1777409353 | 14.44° C | 100% | 1010.5 hPa | - | - | - | - |
| 1777406953 | 15° C | 100% | 1010.3 hPa | - | - | - | - |
| 1777404565 | 15.56° C | 100% | 1009.7 hPa | - | - | - | - |
| 1777404553 | 15.56° C | 100% | 1009.7 hPa | - | - | - | - |
| 1777402153 | 16.67° C | 94% | 1009.7 hPa | - | - | - | - |
| 1777399753 | 18.89° C | 81% | 1010 hPa | - | - | - | - |
| 1777397353 | 19.44° C | 70% | 1010.4 hPa | - | - | - | - |
| 1777394953 | 22.78° C | 46% | 1010.5 hPa | - | - | - | - |
| 1777392553 | 23.33° C | 40% | 1010.4 hPa | - | - | - | - |
| 1777390164 | 25° C | 37% | 1010.3 hPa | - | - | - | - |
| 1777390153 | 25° C | 37% | 1010.3 hPa | - | - | - | - |
| 1777387753 | 26.67° C | 32% | 1010.8 hPa | - | - | - | - |
| 1777385352 | 27.78° C | 31% | 1010.9 hPa | - | - | - | - |
| 1777382952 | 27.78° C | 32% | 1011.3 hPa | - | - | - | - |
| 1777380552 | 28.33° C | 35% | 1011.5 hPa | - | - | - | - |
| 1777378152 | 27.22° C | 37% | 1012 hPa | - | - | - | - |
| 1777375752 | 26.67° C | 39% | 1012.4 hPa | - | - | - | - |
| 1777373352 | 26.11° C | 39% | 1012.7 hPa | - | - | - | - |
| 1777370952 | 27.22° C | 40% | 1013 hPa | - | - | - | - |
| 1777368552 | 26.67° C | 43% | 1013.1 hPa | - | - | - | - |
| 1777366152 | 26.11° C | 47% | 1013 hPa | - | - | - | - |
* Rain since midnight (hover to see other rain measurements)
** Current wind speed in m/s (hover to see current wind gust speed)